Time;durP1;ratioP1;P1;durP2;ratioP2;P2;SDS_P1;SDS_P2;PMS_P1;PMS_P2;Temp;Humidity;BMP_temperature;BMP_pressure;BME280_temperature;BME280_humidity;BME280_pressure;Samples;Min_cycle;Max_cycle;Signal;HPM_P1;HPM_P2
2023/05/01 00:00:05;;;;;;;14.82;11.40;;;16.90;96.70;;;;;;4944725;28;20057;-73
2023/05/01 00:02:34;;;;;;;15.20;10.80;;;16.90;96.70;;;;;;4944035;28;20070;-73
2023/05/01 00:05:03;;;;;;;17.50;12.00;;;16.90;96.70;;;;;;4944772;28;20047;-72
2023/05/01 00:07:32;;;;;;;14.73;11.57;;;17.00;96.70;;;;;;4944664;28;20134;-72
2023/05/01 00:10:02;;;;;;;13.98;10.65;;;17.00;96.70;;;;;;4928772;28;20791;-72
2023/05/01 00:12:30;;;;;;;14.50;12.02;;;17.10;96.70;;;;;;4946254;28;20043;-72
2023/05/01 00:14:58;;;;;;;14.35;11.60;;;17.00;96.70;;;;;;4946067;28;20412;-73
2023/05/01 00:17:27;;;;;;;14.98;11.63;;;17.00;96.70;;;;;;4943609;28;20461;-72
2023/05/01 00:19:56;;;;;;;14.88;12.20;;;16.90;96.70;;;;;;4945816;28;20050;-73
2023/05/01 00:22:41;;;;;;;15.55;11.32;;;16.90;96.70;;;;;;4945967;28;20132;-73
2023/05/01 00:25:11;;;;;;;17.27;12.75;;;16.90;96.70;;;;;;4944674;28;20063;-72
2023/05/01 00:27:39;;;;;;;16.15;11.80;;;17.00;96.70;;;;;;4944635;28;20535;-72
2023/05/01 00:30:08;;;;;;;17.17;12.05;;;17.00;96.70;;;;;;4943674;28;20039;-73
2023/05/01 00:32:37;;;;;;;15.30;12.27;;;17.00;96.70;;;;;;4945652;28;20054;-73
2023/05/01 00:35:06;;;;;;;16.88;11.40;;;16.90;96.70;;;;;;4944052;28;20039;-72
2023/05/01 00:37:34;;;;;;;17.30;12.18;;;16.80;96.70;;;;;;4944332;28;20110;-73
2023/05/01 00:40:04;;;;;;;14.10;11.60;;;16.90;96.70;;;;;;4944813;28;20073;-73
2023/05/01 00:42:38;;;;;;;15.13;11.00;;;16.90;96.70;;;;;;4943959;28;20069;-73
2023/05/01 00:45:07;;;;;;;14.52;11.35;;;16.90;96.70;;;;;;4959784;28;20055;-73
2023/05/01 00:47:36;;;;;;;14.27;11.23;;;17.10;96.70;;;;;;4945948;28;20039;-72
2023/05/01 00:50:06;;;;;;;15.25;11.10;;;17.00;96.70;;;;;;4943865;28;20102;-73
2023/05/01 00:52:35;;;;;;;14.80;10.63;;;17.00;96.70;;;;;;4943859;28;20141;-73
2023/05/01 00:55:04;;;;;;;15.05;10.95;;;16.90;96.70;;;;;;4944152;28;20043;-73
2023/05/01 00:57:32;;;;;;;14.88;11.15;;;16.80;96.70;;;;;;4943244;28;20040;-72
2023/05/01 01:00:04;;;;;;;15.27;11.00;;;16.80;96.70;;;;;;4938096;28;20047;-73
2023/05/01 01:02:32;;;;;;;16.98;12.00;;;16.90;96.70;;;;;;4926004;29;20055;-72
2023/05/01 01:05:00;;;;;;;17.08;10.63;;;17.00;96.70;;;;;;4945774;28;20746;-74
2023/05/01 01:07:38;;;;;;;12.88;9.98;;;17.00;96.70;;;;;;4943431;28;20631;-73
2023/05/01 01:10:19;;;;;;;14.15;10.98;;;16.90;96.70;;;;;;4951968;28;20078;-72
2023/05/01 01:12:57;;;;;;;14.63;11.57;;;17.00;96.70;;;;;;4943817;28;20500;-72
2023/05/01 01:15:34;;;;;;;15.70;11.05;;;17.10;96.70;;;;;;4945283;28;20109;-72
2023/05/01 01:18:11;;;;;;;15.15;11.48;;;17.10;96.70;;;;;;4936067;28;20504;-72
2023/05/01 01:20:45;;;;;;;12.95;10.77;;;17.10;96.70;;;;;;4943408;28;20568;-73
2023/05/01 01:23:38;;;;;;;14.18;9.90;;;16.90;96.70;;;;;;4943140;28;20062;-73
2023/05/01 01:26:27;;;;;;;12.70;9.15;;;16.90;96.70;;;;;;4937862;28;20071;-73
2023/05/01 01:29:24;;;;;;;14.25;10.38;;;16.80;96.70;;;;;;4924068;29;20079;-72
2023/05/01 01:32:02;;;;;;;16.48;10.25;;;16.80;96.70;;;;;;4937545;28;20047;-72
2023/05/01 01:34:35;;;;;;;15.02;10.68;;;16.80;96.70;;;;;;4927630;29;20394;-73
2023/05/01 01:37:11;;;;;;;14.95;11.18;;;16.80;96.70;;;;;;4942508;28;20055;-72
2023/05/01 01:39:47;;;;;;;14.02;10.70;;;16.70;96.70;;;;;;4942214;28;20137;-73
2023/05/01 01:42:21;;;;;;;15.45;10.65;;;16.70;96.70;;;;;;4944707;28;20062;-73
2023/05/01 01:44:53;;;;;;;15.27;11.38;;;16.80;96.70;;;;;;4958711;28;20050;-73
2023/05/01 01:47:35;;;;;;;12.90;10.70;;;16.80;96.70;;;;;;4942055;28;20068;-73
2023/05/01 01:50:09;;;;;;;13.98;10.32;;;16.80;96.70;;;;;;4943259;28;20047;-73
2023/05/01 01:52:39;;;;;;;13.70;9.32;;;16.80;96.70;;;;;;4944256;28;20039;-73
2023/05/01 01:55:11;;;;;;;12.70;9.90;;;16.80;96.70;;;;;;4943229;28;20122;-73
2023/05/01 01:57:43;;;;;;;14.98;10.43;;;16.90;96.70;;;;;;4942601;28;20043;-73
2023/05/01 02:00:15;;;;;;;14.32;10.20;;;17.00;96.70;;;;;;4942895;28;20071;-73
2023/05/01 02:02:47;;;;;;;12.20;9.73;;;17.00;96.70;;;;;;4942174;28;20527;-72
2023/05/01 02:05:20;;;;;;;11.63;9.48;;;16.90;96.70;;;;;;4944110;28;20134;-74
2023/05/01 02:07:52;;;;;;;12.43;9.48;;;16.80;96.70;;;;;;4941224;28;20055;-72
2023/05/01 02:10:22;;;;;;;12.63;9.88;;;16.80;96.70;;;;;;4943135;28;20046;-73
2023/05/01 02:12:52;;;;;;;16.13;10.32;;;16.80;96.70;;;;;;4943125;28;20051;-73
2023/05/01 02:15:21;;;;;;;14.38;10.48;;;16.80;96.70;;;;;;4941926;28;20122;-73
2023/05/01 02:17:52;;;;;;;13.35;9.63;;;16.90;96.70;;;;;;4927042;29;20142;-73
2023/05/01 02:20:23;;;;;;;12.25;10.13;;;16.90;96.70;;;;;;4943006;28;20545;-73
2023/05/01 02:22:52;;;;;;;15.45;10.40;;;16.80;96.70;;;;;;4923531;28;20090;-73
2023/05/01 02:25:21;;;;;;;17.33;10.68;;;16.80;96.70;;;;;;4942571;28;20070;-73
2023/05/01 02:27:54;;;;;;;15.70;10.82;;;16.80;96.70;;;;;;4943949;28;20047;-72
2023/05/01 02:30:23;;;;;;;16.90;11.38;;;16.70;96.70;;;;;;4954712;28;20054;-73
2023/05/01 02:32:51;;;;;;;14.45;10.60;;;16.70;96.70;;;;;;4942339;28;20373;-72
2023/05/01 02:35:20;;;;;;;14.70;10.55;;;16.60;96.70;;;;;;4942430;28;20062;-73
2023/05/01 02:37:50;;;;;;;15.65;11.05;;;16.70;96.70;;;;;;4942446;28;20043;-72
2023/05/01 02:40:19;;;;;;;14.98;11.05;;;16.60;96.70;;;;;;4942924;28;20047;-72
2023/05/01 02:42:48;;;;;;;15.57;10.50;;;16.70;96.70;;;;;;4930334;29;20390;-73
2023/05/01 02:45:19;;;;;;;12.70;10.20;;;16.70;96.70;;;;;;4945971;28;20062;-73
2023/05/01 02:47:50;;;;;;;14.48;10.13;;;16.70;96.70;;;;;;4945453;28;20054;-73
2023/05/01 02:50:20;;;;;;;12.82;9.77;;;16.60;96.70;;;;;;4947433;28;20139;-72
2023/05/01 02:52:51;;;;;;;14.07;10.65;;;16.70;96.70;;;;;;4946614;28;20039;-72
2023/05/01 02:55:33;;;;;;;14.57;9.82;;;16.80;96.70;;;;;;4945724;28;21025;-72
2023/05/01 02:58:01;;;;;;;14.43;10.00;;;16.80;96.70;;;;;;4947916;28;20039;-72
2023/05/01 03:00:30;;;;;;;13.75;9.98;;;16.80;96.70;;;;;;4945396;28;20516;-72
2023/05/01 03:02:58;;;;;;;13.60;10.45;;;17.00;96.70;;;;;;4930218;29;20551;-73
2023/05/01 03:05:27;;;;;;;13.13;9.95;;;17.10;96.70;;;;;;4930321;28;20130;-72
2023/05/01 03:07:56;;;;;;;16.75;11.43;;;17.00;96.70;;;;;;4945987;28;20230;-73
2023/05/01 03:10:25;;;;;;;14.88;11.27;;;17.10;96.70;;;;;;4945334;28;20509;-72
2023/05/01 03:12:53;;;;;;;11.55;9.20;;;17.00;96.70;;;;;;4945937;28;20067;-72
2023/05/01 03:15:21;;;;;;;12.48;9.65;;;16.90;96.70;;;;;;4946930;28;20043;-73
2023/05/01 03:17:50;;;;;;;12.60;9.93;;;17.00;96.70;;;;;;4945725;28;20043;-73
2023/05/01 03:20:18;;;;;;;11.93;9.40;;;17.10;96.70;;;;;;4944563;28;20047;-73
2023/05/01 03:22:46;;;;;;;11.57;9.80;;;17.20;96.70;;;;;;4929580;29;20067;-73
2023/05/01 03:25:16;;;;;;;12.85;9.15;;;17.40;96.70;;;;;;4945374;28;20725;-72
2023/05/01 03:27:45;;;;;;;11.82;8.40;;;17.40;96.70;;;;;;4945615;28;20087;-72
2023/05/01 03:30:13;;;;;;;12.82;9.32;;;17.40;96.70;;;;;;4944925;28;20520;-72
2023/05/01 03:32:42;;;;;;;10.60;8.98;;;17.50;96.70;;;;;;4945724;28;20086;-73
2023/05/01 03:35:18;;;;;;;10.73;8.10;;;17.50;96.70;;;;;;4930174;28;20055;-72
2023/05/01 03:37:47;;;;;;;8.52;7.57;;;17.40;96.70;;;;;;4936374;28;20059;-72
2023/05/01 03:40:33;;;;;;;7.65;6.43;;;17.50;96.70;;;;;;4945196;28;20549;-72
2023/05/01 03:43:36;;;;;;;6.32;5.63;;;17.50;96.70;;;;;;4922660;29;20047;-73
2023/05/01 03:46:10;;;;;;;7.45;5.35;;;17.50;96.70;;;;;;4944350;28;20138;-72
2023/05/01 03:48:39;;;;;;;6.28;5.50;;;17.50;96.70;;;;;;4944886;28;20125;-72
2023/05/01 03:51:08;;;;;;;7.55;4.82;;;17.60;96.70;;;;;;4944339;28;20043;-72
2023/05/01 03:53:38;;;;;;;6.35;4.70;;;17.60;96.70;;;;;;4944620;28;20481;-73
2023/05/01 03:56:09;;;;;;;6.13;5.20;;;17.50;96.70;;;;;;4944417;28;20059;-72
2023/05/01 03:58:38;;;;;;;7.05;4.35;;;17.50;96.70;;;;;;4944452;28;20417;-72
2023/05/01 04:01:06;;;;;;;4.88;4.45;;;17.50;96.70;;;;;;4944803;28;20046;-72
2023/05/01 04:03:39;;;;;;;5.03;4.53;;;17.50;96.70;;;;;;4944424;28;20473;-72
2023/05/01 04:06:08;;;;;;;4.53;4.13;;;17.50;96.70;;;;;;4945091;28;20580;-72
2023/05/01 04:08:36;;;;;;;5.20;4.70;;;17.50;96.70;;;;;;4944591;28;20274;-73
2023/05/01 04:11:05;;;;;;;5.25;4.60;;;17.50;96.70;;;;;;4928179;29;20106;-72
2023/05/01 04:13:35;;;;;;;5.55;4.30;;;17.50;96.70;;;;;;4944880;28;20490;-72
2023/05/01 04:16:05;;;;;;;5.75;4.80;;;17.40;96.70;;;;;;4944758;28;20055;-72
2023/05/01 04:18:33;;;;;;;7.03;4.57;;;17.40;96.70;;;;;;4944605;28;20078;-73
2023/05/01 04:21:02;;;;;;;4.68;4.18;;;17.40;96.70;;;;;;4944738;28;20074;-72
2023/05/01 04:23:30;;;;;;;4.18;3.78;;;17.50;96.70;;;;;;4944482;28;20039;-72
2023/05/01 04:25:59;;;;;;;7.18;4.38;;;17.60;96.70;;;;;;4942701;28;20053;-73
2023/05/01 04:28:29;;;;;;;5.45;4.50;;;17.60;96.70;;;;;;4941838;28;20047;-72
2023/05/01 04:30:59;;;;;;;5.45;4.82;;;17.60;96.70;;;;;;4958576;28;20485;-72
2023/05/01 04:33:28;;;;;;;5.38;4.88;;;17.50;96.70;;;;;;4946253;28;20053;-73
2023/05/01 04:35:56;;;;;;;5.50;4.97;;;17.50;96.70;;;;;;4944520;28;20750;-73
2023/05/01 04:38:25;;;;;;;6.03;5.10;;;17.50;96.70;;;;;;4945947;28;20047;-73
2023/05/01 04:40:55;;;;;;;7.05;5.22;;;17.50;96.70;;;;;;4943690;28;20754;-72
2023/05/01 04:43:23;;;;;;;5.18;4.68;;;17.40;96.70;;;;;;4943885;28;20502;-73
2023/05/01 04:45:52;;;;;;;5.45;4.95;;;17.40;96.70;;;;;;4944216;28;20098;-72
2023/05/01 04:48:23;;;;;;;5.03;4.53;;;17.40;96.70;;;;;;4943448;28;20056;-73
2023/05/01 04:50:51;;;;;;;5.85;4.95;;;17.40;96.70;;;;;;4942126;28;20576;-72
2023/05/01 04:53:20;;;;;;;6.32;5.72;;;17.40;96.70;;;;;;4942320;28;20138;-73
2023/05/01 04:55:49;;;;;;;5.82;4.90;;;17.40;96.70;;;;;;4942977;28;20058;-73
2023/05/01 04:58:18;;;;;;;5.85;5.10;;;17.40;96.70;;;;;;4938279;28;20473;-72
2023/05/01 05:00:50;;;;;;;5.95;5.18;;;17.40;96.70;;;;;;4938997;28;20043;-73
2023/05/01 05:03:23;;;;;;;7.35;4.95;;;17.30;96.70;;;;;;4942735;28;20047;-72
2023/05/01 05:05:52;;;;;;;6.72;4.70;;;17.30;96.70;;;;;;4943135;28;20134;-72
2023/05/01 05:08:20;;;;;;;5.43;4.93;;;17.30;96.70;;;;;;4944405;28;20605;-72
2023/05/01 05:11:01;;;;;;;5.97;5.18;;;17.40;96.70;;;;;;4943398;28;20473;-72
2023/05/01 05:13:34;;;;;;;6.00;5.50;;;17.50;96.70;;;;;;4943414;28;20097;-72
2023/05/01 05:16:09;;;;;;;6.00;5.50;;;17.50;96.70;;;;;;4943438;28;20576;-73
2023/05/01 05:18:40;;;;;;;7.43;5.35;;;17.60;96.70;;;;;;4926734;28;20059;-73
2023/05/01 05:21:09;;;;;;;8.48;6.60;;;17.60;96.70;;;;;;4943035;28;20058;-73
2023/05/01 05:23:43;;;;;;;8.43;6.55;;;17.70;96.70;;;;;;4942989;28;20055;-73
2023/05/01 05:26:11;;;;;;;10.70;8.30;;;17.70;96.70;;;;;;4943120;28;20255;-72
2023/05/01 05:28:40;;;;;;;8.95;7.40;;;17.60;96.70;;;;;;4941042;28;20047;-72
2023/05/01 05:31:08;;;;;;;8.40;6.90;;;17.50;96.70;;;;;;4943017;28;20525;-72
2023/05/01 05:33:39;;;;;;;8.75;7.30;;;17.40;96.70;;;;;;4943346;28;20616;-73
2023/05/01 05:36:08;;;;;;;9.48;8.32;;;17.40;96.70;;;;;;4943232;28;20051;-72
2023/05/01 05:38:40;;;;;;;7.22;6.25;;;17.40;96.70;;;;;;4943431;28;20051;-72
2023/05/01 05:41:11;;;;;;;8.52;7.63;;;17.40;96.70;;;;;;4942474;28;20157;-72
2023/05/01 05:43:40;;;;;;;8.85;7.65;;;17.50;96.70;;;;;;4935391;28;20039;-72
2023/05/01 05:46:09;;;;;;;13.10;7.28;;;17.50;96.70;;;;;;4942732;28;20067;-72
2023/05/01 05:48:40;;;;;;;6.70;6.10;;;17.60;96.70;;;;;;4943299;28;20055;-73
2023/05/01 05:51:09;;;;;;;7.00;6.35;;;17.70;96.70;;;;;;4959442;28;20086;-73
2023/05/01 05:53:37;;;;;;;7.00;5.78;;;17.80;96.70;;;;;;4942459;28;20408;-73
2023/05/01 05:56:06;;;;;;;6.75;6.10;;;17.80;96.70;;;;;;4926935;28;20698;-73
2023/05/01 05:58:35;;;;;;;7.55;6.10;;;17.90;96.70;;;;;;4942755;28;20051;-72
2023/05/01 06:01:05;;;;;;;7.22;6.53;;;17.90;96.70;;;;;;4941991;28;20539;-72
2023/05/01 06:03:35;;;;;;;7.00;5.82;;;17.90;96.70;;;;;;4943036;28;20055;-72
2023/05/01 06:06:06;;;;;;;8.63;6.75;;;17.90;96.70;;;;;;4942824;28;20074;-73
2023/05/01 06:08:36;;;;;;;7.65;5.68;;;18.00;96.70;;;;;;4943295;28;20318;-72
2023/05/01 06:11:08;;;;;;;6.45;5.72;;;18.00;96.70;;;;;;4941745;28;20054;-72
2023/05/01 06:13:38;;;;;;;6.88;5.00;;;18.00;96.70;;;;;;4943016;28;20106;-72
2023/05/01 06:16:08;;;;;;;7.20;5.78;;;18.00;96.70;;;;;;4944327;28;20035;-72
2023/05/01 06:18:37;;;;;;;5.47;4.60;;;18.00;96.70;;;;;;4942147;28;20086;-72
2023/05/01 06:21:07;;;;;;;5.70;4.32;;;18.00;96.70;;;;;;4922382;28;20047;-73
2023/05/01 06:23:35;;;;;;;5.50;4.70;;;18.10;96.70;;;;;;4942274;28;20094;-72
2023/05/01 06:26:22;;;;;;;5.15;4.30;;;18.00;96.70;;;;;;4943386;28;20141;-72
2023/05/01 06:28:50;;;;;;;6.05;4.53;;;17.90;96.70;;;;;;4942727;28;20047;-72
2023/05/01 06:31:19;;;;;;;5.15;4.53;;;17.90;96.70;;;;;;4941979;28;20054;-72
2023/05/01 06:33:52;;;;;;;4.95;4.43;;;17.90;96.70;;;;;;4942472;28;20401;-72
2023/05/01 06:36:32;;;;;;;4.43;4.03;;;17.80;96.70;;;;;;4941930;28;20130;-72
2023/05/01 06:39:01;;;;;;;4.63;3.90;;;17.80;96.70;;;;;;4942576;28;20043;-72
2023/05/01 06:41:33;;;;;;;4.38;3.50;;;17.80;96.70;;;;;;4942697;28;20529;-73
2023/05/01 06:44:01;;;;;;;3.72;3.40;;;17.80;96.70;;;;;;4941516;28;20051;-73
2023/05/01 06:46:30;;;;;;;4.25;3.83;;;17.90;96.70;;;;;;4942281;28;20043;-72
2023/05/01 06:48:59;;;;;;;4.53;3.78;;;17.90;96.70;;;;;;4942359;28;20049;-72
2023/05/01 06:51:29;;;;;;;4.30;3.72;;;17.90;96.70;;;;;;4942237;28;20043;-73
2023/05/01 06:53:59;;;;;;;4.05;3.60;;;17.90;96.70;;;;;;4943608;28;20051;-72
2023/05/01 06:56:27;;;;;;;3.40;3.10;;;18.00;96.70;;;;;;4941088;28;20133;-72
2023/05/01 06:58:56;;;;;;;3.65;3.35;;;18.10;96.70;;;;;;4941916;28;20051;-72
2023/05/01 07:01:24;;;;;;;3.78;3.47;;;18.20;96.70;;;;;;4941673;28;20066;-73
2023/05/01 07:03:53;;;;;;;3.47;3.17;;;18.20;96.70;;;;;;4942172;28;20464;-74
2023/05/01 07:06:22;;;;;;;3.50;3.20;;;18.30;96.70;;;;;;4940170;28;20513;-75
2023/05/01 07:08:50;;;;;;;4.85;3.85;;;18.40;96.70;;;;;;4940779;28;20201;-73
2023/05/01 07:11:25;;;;;;;4.30;3.90;;;18.40;96.70;;;;;;4941481;28;20047;-74
2023/05/01 07:13:54;;;;;;;5.15;4.00;;;18.40;96.70;;;;;;4937598;28;20051;-72
2023/05/01 07:16:22;;;;;;;4.20;3.80;;;18.30;96.70;;;;;;4939034;28;20043;-73
2023/05/01 07:18:51;;;;;;;4.75;4.05;;;18.50;96.70;;;;;;4942151;28;20110;-74
2023/05/01 07:21:19;;;;;;;5.50;4.60;;;18.60;96.70;;;;;;4941440;28;20039;-72
2023/05/01 07:23:47;;;;;;;5.40;4.03;;;18.60;96.70;;;;;;4941760;28;20549;-73
2023/05/01 07:26:16;;;;;;;6.18;4.18;;;18.70;96.70;;;;;;4942659;28;20578;-73
2023/05/01 07:28:46;;;;;;;5.43;4.32;;;18.80;96.70;;;;;;4945526;28;20102;-73
2023/05/01 07:31:15;;;;;;;4.47;3.67;;;18.90;96.70;;;;;;4944894;28;20139;-72
2023/05/01 07:33:43;;;;;;;8.48;3.78;;;19.00;96.70;;;;;;4942383;28;20405;-73
2023/05/01 07:36:12;;;;;;;5.93;3.60;;;19.10;96.70;;;;;;4945423;28;20576;-73
2023/05/01 07:38:41;;;;;;;5.45;3.45;;;19.20;96.70;;;;;;4947189;28;20047;-75
2023/05/01 07:41:09;;;;;;;6.03;3.83;;;19.20;96.70;;;;;;4946158;28;20039;-75
2023/05/01 07:43:38;;;;;;;5.40;3.25;;;19.30;96.70;;;;;;4945367;28;20051;-74
2023/05/01 07:46:08;;;;;;;4.00;2.92;;;19.40;96.70;;;;;;4944627;28;20052;-72
2023/05/01 07:48:36;;;;;;;9.32;3.50;;;19.50;96.70;;;;;;4939820;28;20580;-73
2023/05/01 07:51:06;;;;;;;4.25;3.22;;;19.60;96.70;;;;;;4946783;28;20176;-72
2023/05/01 07:53:34;;;;;;;7.53;3.80;;;19.80;96.70;;;;;;4944721;28;20058;-74
2023/05/01 07:56:07;;;;;;;4.55;3.13;;;19.90;96.70;;;;;;4945806;28;20053;-73
2023/05/01 07:58:36;;;;;;;5.07;2.83;;;20.00;96.70;;;;;;4944775;28;20044;-73
2023/05/01 08:01:08;;;;;;;2.42;2.20;;;20.20;96.70;;;;;;4944030;28;20047;-73
2023/05/01 08:03:36;;;;;;;3.70;2.50;;;20.20;96.70;;;;;;4946642;28;20102;-74
2023/05/01 08:06:05;;;;;;;3.72;2.28;;;20.30;96.70;;;;;;4944653;28;20043;-73
2023/05/01 08:08:34;;;;;;;18.77;3.92;;;20.40;96.70;;;;;;4945662;28;20098;-74
2023/05/01 08:11:01;;;;;;;3.67;2.00;;;20.60;96.70;;;;;;4944462;28;20047;-73
2023/05/01 08:13:29;;;;;;;3.78;1.92;;;20.70;96.70;;;;;;4945178;28;20110;-73
2023/05/01 08:16:01;;;;;;;4.07;2.40;;;20.80;96.70;;;;;;4944087;28;20043;-74
2023/05/01 08:18:30;;;;;;;8.38;2.30;;;20.80;96.70;;;;;;4944836;28;20171;-72
2023/05/01 08:20:58;;;;;;;6.72;2.63;;;20.90;96.70;;;;;;4946426;28;20398;-74
2023/05/01 08:23:26;;;;;;;4.00;1.98;;;21.00;96.70;;;;;;4945913;28;20437;-73
2023/05/01 08:25:54;;;;;;;2.47;1.70;;;21.00;96.70;;;;;;4945555;28;20040;-72
2023/05/01 08:28:22;;;;;;;4.07;1.92;;;21.10;96.70;;;;;;4945061;28;20043;-74
2023/05/01 08:30:50;;;;;;;2.40;2.08;;;21.20;96.70;;;;;;4943933;28;20130;-73
2023/05/01 08:33:19;;;;;;;3.25;1.90;;;21.30;96.70;;;;;;4945483;28;20047;-73
2023/05/01 08:35:48;;;;;;;3.05;2.00;;;21.40;96.70;;;;;;4945287;28;20039;-73
2023/05/01 08:38:16;;;;;;;7.30;1.70;;;21.50;96.70;;;;;;4941221;28;20497;-73
2023/05/01 08:40:50;;;;;;;2.25;1.88;;;21.50;96.70;;;;;;4942756;28;20067;-74
2023/05/01 08:43:18;;;;;;;4.82;2.15;;;21.50;96.70;;;;;;4944825;28;20039;-73
2023/05/01 08:45:47;;;;;;;2.38;1.60;;;21.60;96.70;;;;;;4943313;28;20420;-73
2023/05/01 08:48:17;;;;;;;1.73;1.50;;;21.70;96.70;;;;;;4943502;28;20129;-73
2023/05/01 08:50:47;;;;;;;4.70;2.08;;;21.80;96.70;;;;;;4944883;28;20140;-72
2023/05/01 08:53:17;;;;;;;2.25;1.70;;;21.70;96.70;;;;;;4945007;28;20102;-74
2023/05/01 08:55:46;;;;;;;2.58;1.38;;;21.80;96.70;;;;;;4942341;28;20067;-74
2023/05/01 08:58:17;;;;;;;2.45;1.48;;;21.70;96.70;;;;;;4942442;28;20560;-73
2023/05/01 09:00:46;;;;;;;3.63;1.63;;;21.70;96.70;;;;;;4942441;28;20047;-72
2023/05/01 09:03:15;;;;;;;2.97;1.55;;;21.70;96.70;;;;;;4942912;28;20717;-72
2023/05/01 09:05:45;;;;;;;1.70;1.38;;;21.70;96.70;;;;;;4941298;28;20050;-72
2023/05/01 09:08:15;;;;;;;3.00;1.70;;;21.70;96.70;;;;;;4943331;28;20066;-73
2023/05/01 09:10:46;;;;;;;4.03;2.40;;;21.70;96.70;;;;;;4942620;28;20055;-73
2023/05/01 09:13:15;;;;;;;3.38;1.65;;;21.70;96.70;;;;;;4944166;28;20051;-73
2023/05/01 09:15:43;;;;;;;5.20;2.88;;;21.70;96.70;;;;;;4943045;28;20074;-72
2023/05/01 09:18:11;;;;;;;2.55;2.17;;;21.60;96.70;;;;;;4943665;28;20063;-75
2023/05/01 09:20:40;;;;;;;2.92;1.92;;;21.60;96.70;;;;;;4944053;28;20147;-74
2023/05/01 09:23:08;;;;;;;2.70;1.40;;;21.50;96.70;;;;;;4942605;28;20505;-73
2023/05/01 09:25:37;;;;;;;2.50;1.95;;;21.50;96.70;;;;;;4938451;28;20559;-76
2023/05/01 09:28:06;;;;;;;4.13;2.22;;;21.40;96.70;;;;;;4943112;28;20053;-74
2023/05/01 09:30:35;;;;;;;2.10;1.60;;;21.40;96.70;;;;;;4942197;28;20039;-75
2023/05/01 09:33:07;;;;;;;5.45;2.67;;;21.40;96.70;;;;;;4941294;28;20159;-75
2023/05/01 09:35:52;;;;;;;3.92;2.00;;;21.50;96.70;;;;;;4935346;28;20122;-74
2023/05/01 09:38:22;;;;;;;2.05;1.85;;;21.50;96.70;;;;;;4942588;28;20824;-75
2023/05/01 09:40:55;;;;;;;3.17;2.30;;;21.50;96.70;;;;;;4941934;28;20054;-74
2023/05/01 09:43:25;;;;;;;4.80;2.45;;;21.50;96.70;;;;;;4943674;28;20126;-74
2023/05/01 09:46:00;;;;;;;2.63;1.67;;;21.50;96.70;;;;;;4941956;28;20059;-72
2023/05/01 09:48:29;;;;;;;2.67;1.75;;;21.60;96.70;;;;;;4942417;28;20118;-73
2023/05/01 09:51:18;;;;;;;3.50;1.60;;;21.60;96.70;;;;;;4944089;28;20119;-72
2023/05/01 09:53:46;;;;;;;3.55;1.50;;;21.60;96.70;;;;;;4942565;28;20513;-73
2023/05/01 09:56:16;;;;;;;3.38;1.67;;;21.60;96.70;;;;;;4941307;28;20071;-73
2023/05/01 09:58:44;;;;;;;2.28;1.58;;;21.60;96.70;;;;;;4942070;28;20061;-74
2023/05/01 10:01:12;;;;;;;1.83;1.67;;;21.60;96.70;;;;;;4943661;28;20054;-73
2023/05/01 10:03:41;;;;;;;2.22;1.73;;;21.60;96.70;;;;;;4941465;28;20047;-74
2023/05/01 10:06:09;;;;;;;2.78;1.88;;;21.70;96.70;;;;;;4941615;28;20055;-74
2023/05/01 10:08:48;;;;;;;3.88;1.90;;;21.70;96.70;;;;;;4940484;28;20055;-73
2023/05/01 10:11:17;;;;;;;2.83;2.00;;;21.70;96.70;;;;;;4925947;29;20501;-73
2023/05/01 10:13:45;;;;;;;2.42;1.55;;;21.70;96.70;;;;;;4944866;28;20082;-74
2023/05/01 10:16:29;;;;;;;2.65;2.00;;;21.80;96.70;;;;;;4942021;28;20051;-76
2023/05/01 10:18:58;;;;;;;3.92;1.70;;;21.80;96.70;;;;;;4958740;28;20172;-74
2023/05/01 10:21:28;;;;;;;1.85;1.45;;;21.70;96.70;;;;;;4941512;28;20054;-74
2023/05/01 10:23:56;;;;;;;2.13;1.83;;;21.60;96.70;;;;;;4941849;28;20047;-73
2023/05/01 10:26:25;;;;;;;2.55;1.92;;;21.60;96.70;;;;;;4942865;28;20054;-74
2023/05/01 10:28:57;;;;;;;2.70;1.65;;;21.60;96.70;;;;;;4942055;28;20853;-72
2023/05/01 10:31:26;;;;;;;4.47;2.17;;;21.50;96.70;;;;;;4941953;28;20043;-73
2023/05/01 10:33:55;;;;;;;4.00;2.00;;;21.40;96.70;;;;;;4944902;28;20130;-74
2023/05/01 10:36:27;;;;;;;3.53;1.83;;;21.40;96.70;;;;;;4944178;28;20130;-73
2023/05/01 10:38:55;;;;;;;2.47;1.90;;;21.30;96.70;;;;;;4957707;28;20040;-73
2023/05/01 10:42:09;;;;;;;5.50;2.20;;;21.20;96.70;;;;;;4942752;28;20055;-73
2023/05/01 10:44:38;;;;;;;5.00;2.13;;;21.20;96.70;;;;;;4887173;29;20070;-73
2023/05/01 10:47:43;;;;;;;4.20;2.10;;;21.10;96.70;;;;;;4936247;28;20066;-73
2023/05/01 10:50:11;;;;;;;4.18;2.47;;;21.00;96.70;;;;;;4925509;28;20055;-72
2023/05/01 10:53:16;;;;;;;5.43;2.30;;;21.00;96.70;;;;;;4941938;28;20062;-72
2023/05/01 10:55:45;;;;;;;2.72;2.42;;;20.90;96.70;;;;;;4940294;28;20059;-72
2023/05/01 10:58:57;;;;;;;3.70;2.50;;;20.90;96.70;;;;;;4941969;28;20049;-72
2023/05/01 11:01:30;;;;;;;2.70;2.08;;;20.90;96.70;;;;;;4942392;28;20053;-72
2023/05/01 11:03:58;;;;;;;5.00;2.55;;;20.90;96.70;;;;;;4942402;28;20137;-73
2023/05/01 11:06:26;;;;;;;4.30;2.70;;;20.90;96.70;;;;;;4929488;29;20085;-74
2023/05/01 11:08:56;;;;;;;3.75;2.90;;;20.90;96.70;;;;;;4944798;28;20051;-78
2023/05/01 11:11:48;;;;;;;9.13;2.72;;;20.90;96.70;;;;;;4943633;28;20647;-74
2023/05/01 11:14:18;;;;;;;4.47;2.35;;;20.90;96.70;;;;;;4944939;28;20075;-74
2023/05/01 11:16:48;;;;;;;3.33;2.45;;;21.00;96.70;;;;;;4950443;28;20102;-74
2023/05/01 11:19:47;;;;;;;6.28;3.22;;;21.20;96.70;;;;;;4944560;28;20555;-74
2023/05/01 11:22:15;;;;;;;7.53;5.47;;;21.40;96.70;;;;;;4942455;28;20131;-73
2023/05/01 11:24:43;;;;;;;3.53;2.78;;;21.60;96.70;;;;;;4945360;28;20501;-73
2023/05/01 11:27:14;;;;;;;3.20;2.35;;;21.60;96.70;;;;;;4944685;28;20477;-74
2023/05/01 11:29:45;;;;;;;6.47;2.55;;;21.70;96.70;;;;;;4944174;28;20054;-73
2023/05/01 11:32:18;;;;;;;5.18;2.63;;;21.70;96.70;;;;;;4944212;28;20066;-74
2023/05/01 11:34:48;;;;;;;2.58;2.17;;;21.80;96.70;;;;;;4934301;28;20055;-74
2023/05/01 11:37:16;;;;;;;4.13;2.28;;;22.00;96.70;;;;;;4946054;28;20043;-74
2023/05/01 11:39:49;;;;;;;6.32;2.47;;;22.00;96.70;;;;;;4944152;28;20039;-74
2023/05/01 11:42:21;;;;;;;4.70;3.38;;;22.00;96.70;;;;;;4942843;28;20055;-73
2023/05/01 11:45:10;;;;;;;4.18;2.47;;;22.20;96.70;;;;;;4945189;28;20043;-74
2023/05/01 11:47:38;;;;;;;3.20;2.00;;;22.20;96.70;;;;;;4944983;28;20113;-74
2023/05/01 11:50:07;;;;;;;3.33;2.17;;;22.10;96.70;;;;;;4944639;28;20036;-74
2023/05/01 11:52:43;;;;;;;4.05;2.00;;;22.20;96.70;;;;;;4942249;28;21322;-74
2023/05/01 11:55:11;;;;;;;3.00;2.30;;;22.20;96.70;;;;;;4944534;28;20053;-73
2023/05/01 11:57:51;;;;;;;5.55;2.42;;;22.00;96.70;;;;;;4942866;28;20789;-76
2023/05/01 12:00:28;;;;;;;4.07;2.05;;;22.00;96.70;;;;;;4927650;28;20157;-72
2023/05/01 12:02:57;;;;;;;5.90;2.28;;;22.00;96.70;;;;;;4948389;28;20627;-73
2023/05/01 12:05:27;;;;;;;4.70;2.45;;;21.90;96.70;;;;;;4945505;28;20051;-73
2023/05/01 12:08:13;;;;;;;2.97;1.98;;;21.80;96.70;;;;;;4922669;29;20432;-73
2023/05/01 12:10:45;;;;;;;4.03;2.00;;;21.80;96.70;;;;;;4943318;28;20051;-73
2023/05/01 12:13:14;;;;;;;5.05;3.88;;;21.70;96.70;;;;;;4945354;28;20051;-73
2023/05/01 12:15:45;;;;;;;3.60;2.80;;;21.60;96.70;;;;;;4944002;28;20039;-73
2023/05/01 12:18:15;;;;;;;5.90;2.72;;;21.40;96.70;;;;;;4944387;28;20052;-74
2023/05/01 12:20:46;;;;;;;3.55;2.30;;;21.30;96.70;;;;;;4945727;28;20074;-74
2023/05/01 12:23:15;;;;;;;2.90;2.20;;;21.20;96.70;;;;;;4943644;28;20043;-74
2023/05/01 12:26:15;;;;;;;4.05;2.35;;;21.20;96.70;;;;;;4944835;28;20043;-73
2023/05/01 12:28:53;;;;;;;5.75;2.40;;;21.10;96.70;;;;;;4927329;29;20394;-73
2023/05/01 12:31:23;;;;;;;3.67;2.40;;;21.10;96.70;;;;;;4943784;28;20062;-73
2023/05/01 12:33:56;;;;;;;4.35;2.30;;;21.00;96.70;;;;;;4938694;28;20047;-74
2023/05/01 12:36:27;;;;;;;3.08;2.35;;;20.90;96.70;;;;;;4944362;28;20043;-74
2023/05/01 12:38:57;;;;;;;2.40;2.20;;;20.80;96.70;;;;;;4944190;28;20141;-74
2023/05/01 12:41:34;;;;;;;5.00;3.30;;;20.80;96.70;;;;;;4943030;28;20493;-74
2023/05/01 12:44:18;;;;;;;7.97;3.75;;;20.70;96.70;;;;;;4945401;28;20043;-74
2023/05/01 12:46:55;;;;;;;3.22;2.30;;;20.70;96.70;;;;;;4940140;28;20062;-73
2023/05/01 12:49:23;;;;;;;4.43;2.67;;;20.60;96.70;;;;;;4944232;28;20062;-74
2023/05/01 12:51:52;;;;;;;3.45;2.40;;;20.50;96.70;;;;;;4941604;28;20051;-73
2023/05/01 12:54:20;;;;;;;3.95;2.85;;;20.40;96.70;;;;;;4945437;28;21031;-73
2023/05/01 12:56:49;;;;;;;3.33;2.60;;;20.40;96.70;;;;;;4943775;28;20112;-74
2023/05/01 12:59:20;;;;;;;2.78;2.10;;;20.30;96.70;;;;;;4944254;28;20089;-73
2023/05/01 13:01:57;;;;;;;2.72;1.90;;;20.30;96.70;;;;;;4956508;28;20047;-74
2023/05/01 13:04:26;;;;;;;5.03;2.45;;;20.10;96.70;;;;;;4958840;28;20394;-73